Time;durP1;ratioP1;P1;durP2;ratioP2;P2;SDS_P1;SDS_P2;PMS_P1;PMS_P2;Temp;Humidity;BMP_temperature;BMP_pressure;BME280_temperature;BME280_humidity;BME280_pressure;Samples;Min_cycle;Max_cycle;Signal;HPM_P1;HPM_P2
2023/06/09 00:02:18;;;;;;;4.55;2.78;;;19.70;75.80;;;;;;4982271;28;20029;-85
2023/06/09 00:04:46;;;;;;;7.57;3.20;;;19.70;75.90;;;;;;4982809;28;20053;-85
2023/06/09 00:07:15;;;;;;;6.75;3.45;;;19.70;76.10;;;;;;4981180;28;20026;-85
2023/06/09 00:09:47;;;;;;;8.40;3.42;;;19.70;76.20;;;;;;4979929;28;20027;-85
2023/06/09 00:12:13;;;;;;;5.53;3.42;;;19.60;76.40;;;;;;4997930;28;20058;-85
2023/06/09 00:14:40;;;;;;;6.32;3.20;;;19.60;76.50;;;;;;4982053;28;20023;-86
2023/06/09 00:17:09;;;;;;;6.70;3.40;;;19.60;76.50;;;;;;4979986;28;20551;-84
2023/06/09 00:19:43;;;;;;;6.07;2.95;;;19.60;76.60;;;;;;4978357;28;20035;-84
2023/06/09 00:22:15;;;;;;;8.10;3.40;;;19.60;76.70;;;;;;4977676;28;20027;-84
2023/06/09 00:24:41;;;;;;;8.05;3.42;;;19.60;76.80;;;;;;4978184;28;20489;-85
2023/06/09 00:27:08;;;;;;;6.15;3.45;;;19.50;76.90;;;;;;4978885;28;20039;-85
2023/06/09 00:29:34;;;;;;;9.90;3.60;;;19.50;77.00;;;;;;4982955;28;20027;-86
2023/06/09 00:32:00;;;;;;;5.80;2.90;;;19.50;77.10;;;;;;4982761;28;20026;-84
2023/06/09 00:34:25;;;;;;;8.10;3.58;;;19.40;77.10;;;;;;4983487;28;20030;-85
2023/06/09 00:36:51;;;;;;;6.95;3.13;;;19.40;77.10;;;;;;4982337;28;20027;-83
2023/06/09 00:39:17;;;;;;;6.18;3.40;;;19.30;77.00;;;;;;5000531;28;20126;-85
2023/06/09 00:41:43;;;;;;;7.50;3.30;;;19.30;77.00;;;;;;4985296;28;20467;-85
2023/06/09 00:44:18;;;;;;;5.90;3.60;;;19.30;77.10;;;;;;4971315;28;20034;-85
2023/06/09 00:46:44;;;;;;;7.07;3.28;;;19.20;77.20;;;;;;4991443;28;20006;-85
2023/06/09 00:49:19;;;;;;;;;;;;;;;;;;;;;
2023/06/09 00:51:45;;;;;;;7.25;3.00;;;19.10;77.40;;;;;;4998536;28;20059;-85
2023/06/09 00:54:18;;;;;;;6.47;3.88;;;19.10;77.60;;;;;;4996847;28;20030;-86
2023/06/09 00:56:43;;;;;;;7.38;3.30;;;19.00;77.70;;;;;;4994604;28;20481;-84
2023/06/09 00:59:13;;;;;;;7.88;3.47;;;19.00;77.80;;;;;;4985037;28;20090;-85
2023/06/09 01:01:43;;;;;;;7.20;3.65;;;19.00;77.80;;;;;;4993221;28;20038;-85
2023/06/09 01:04:09;;;;;;;9.55;4.10;;;18.90;78.00;;;;;;4983433;28;20023;-85
2023/06/09 01:06:45;;;;;;;6.47;3.35;;;18.90;78.10;;;;;;4990742;28;20027;-85
2023/06/09 01:09:20;;;;;;;7.78;3.60;;;18.80;78.30;;;;;;5009167;28;20098;-85
2023/06/09 01:11:51;;;;;;;7.55;3.25;;;18.70;78.40;;;;;;4993012;28;20035;-85
2023/06/09 01:14:44;;;;;;;7.95;3.88;;;18.70;78.60;;;;;;5008417;28;20015;-83
2023/06/09 01:17:13;;;;;;;7.28;3.70;;;18.70;78.70;;;;;;5008387;28;20046;-84
2023/06/09 01:19:56;;;;;;;7.28;3.35;;;18.70;78.70;;;;;;4993173;28;20031;-85
2023/06/09 01:23:04;;;;;;;9.13;3.85;;;18.70;78.90;;;;;;4994999;28;20051;-85
2023/06/09 01:25:38;;;;;;;9.85;3.55;;;18.60;79.00;;;;;;4992028;28;20019;-84
2023/06/09 01:28:11;;;;;;;6.50;3.60;;;18.50;79.20;;;;;;4990963;28;20062;-85
2023/06/09 01:30:40;;;;;;;7.97;3.70;;;18.50;79.50;;;;;;4990152;28;20106;-85
2023/06/09 01:33:14;;;;;;;8.00;4.00;;;18.50;79.60;;;;;;4990550;28;20054;-85
2023/06/09 01:35:42;;;;;;;7.03;3.53;;;18.40;79.80;;;;;;4989639;28;20022;-83
2023/06/09 01:38:08;;;;;;;6.50;3.45;;;18.40;79.80;;;;;;4989195;28;20034;-85
2023/06/09 01:40:34;;;;;;;6.70;3.55;;;18.40;80.00;;;;;;4989128;28;20034;-84
2023/06/09 01:43:02;;;;;;;8.65;3.47;;;18.40;80.00;;;;;;4989412;28;20034;-84
2023/06/09 01:45:28;;;;;;;11.32;4.38;;;18.30;80.10;;;;;;4988381;28;20438;-84
2023/06/09 01:47:54;;;;;;;9.35;4.00;;;18.30;80.40;;;;;;4988334;28;20653;-85
2023/06/09 01:50:30;;;;;;;8.88;3.65;;;18.30;80.50;;;;;;4987072;28;20023;-85
2023/06/09 01:53:14;;;;;;;6.57;3.70;;;18.30;80.60;;;;;;4985967;28;20125;-84
2023/06/09 01:55:55;;;;;;;8.57;3.50;;;18.20;80.60;;;;;;4990614;28;20034;-84
2023/06/09 01:58:29;;;;;;;7.40;3.05;;;18.20;80.70;;;;;;4986466;28;20054;-84
2023/06/09 02:01:00;;;;;;;9.85;3.95;;;18.20;80.90;;;;;;5002052;28;20455;-85
2023/06/09 02:03:31;;;;;;;8.32;3.78;;;18.20;81.10;;;;;;4983624;28;20598;-85
2023/06/09 02:06:02;;;;;;;8.10;3.85;;;18.10;81.70;;;;;;4981718;28;20031;-85
2023/06/09 02:08:30;;;;;;;10.05;4.10;;;18.00;81.30;;;;;;4978363;28;20050;-86
2023/06/09 02:10:56;;;;;;;8.20;3.58;;;17.90;81.60;;;;;;4976468;28;20395;-86
2023/06/09 02:13:22;;;;;;;8.13;4.05;;;17.90;81.70;;;;;;4961116;28;20031;-85
2023/06/09 02:15:49;;;;;;;8.05;3.78;;;17.90;81.70;;;;;;4962269;28;20050;-86
2023/06/09 02:18:17;;;;;;;6.82;3.10;;;17.90;81.80;;;;;;4997004;28;20044;-87
2023/06/09 02:20:43;;;;;;;9.70;3.97;;;17.90;81.90;;;;;;4980838;28;20026;-87
2023/06/09 02:23:10;;;;;;;8.07;3.70;;;17.90;82.00;;;;;;4996410;28;20030;-88
2023/06/09 02:25:36;;;;;;;9.32;3.60;;;17.90;82.00;;;;;;4997931;28;20022;-87
2023/06/09 02:28:04;;;;;;;7.82;3.92;;;17.90;82.10;;;;;;4980601;28;20035;-85
2023/06/09 02:30:30;;;;;;;7.82;3.20;;;17.80;82.30;;;;;;4980306;28;20041;-87
2023/06/09 02:32:58;;;;;;;6.45;3.42;;;17.80;82.40;;;;;;4997083;28;20222;-87
2023/06/09 02:35:24;;;;;;;9.65;3.55;;;17.70;82.30;;;;;;4998887;28;20057;-87
2023/06/09 02:37:52;;;;;;;7.70;3.33;;;17.70;82.50;;;;;;5003610;28;20078;-86
2023/06/09 02:40:21;;;;;;;7.97;3.53;;;17.70;82.60;;;;;;5003686;28;20082;-85
2023/06/09 02:42:47;;;;;;;8.73;3.58;;;17.60;82.50;;;;;;5020692;28;20037;-87
2023/06/09 02:45:13;;;;;;;10.20;3.92;;;17.60;82.70;;;;;;5020234;28;20031;-85
2023/06/09 02:47:40;;;;;;;7.10;3.60;;;17.60;82.90;;;;;;5011726;28;20070;-87
2023/06/09 02:50:07;;;;;;;6.63;3.45;;;17.50;83.00;;;;;;4988825;28;20026;-85
2023/06/09 02:52:35;;;;;;;9.07;3.83;;;17.50;83.10;;;;;;5014460;28;20023;-83
2023/06/09 02:55:04;;;;;;;10.48;4.03;;;17.60;83.20;;;;;;4995831;28;20030;-84
2023/06/09 02:57:29;;;;;;;9.65;4.07;;;17.50;83.20;;;;;;4969508;28;20375;-85
2023/06/09 02:59:55;;;;;;;7.57;3.38;;;17.50;83.30;;;;;;4982911;28;20023;-88
2023/06/09 03:02:21;;;;;;;8.70;4.10;;;17.40;83.30;;;;;;4980879;28;20463;-87
2023/06/09 03:04:47;;;;;;;7.63;3.83;;;17.50;83.40;;;;;;4980532;28;20057;-87
2023/06/09 03:07:16;;;;;;;8.25;3.95;;;17.40;83.40;;;;;;4979979;28;20050;-86
2023/06/09 03:09:45;;;;;;;7.60;3.72;;;17.40;83.60;;;;;;4996138;28;20041;-87
2023/06/09 03:12:13;;;;;;;10.32;4.00;;;17.40;83.70;;;;;;4997426;28;20027;-86
2023/06/09 03:14:39;;;;;;;9.98;3.47;;;17.40;83.70;;;;;;4997039;28;20033;-87
2023/06/09 03:17:05;;;;;;;13.18;4.68;;;17.30;83.80;;;;;;4996374;28;20527;-88
2023/06/09 03:19:31;;;;;;;8.05;3.80;;;17.30;83.90;;;;;;4979284;28;20034;-86
2023/06/09 03:21:57;;;;;;;8.30;3.88;;;17.30;84.00;;;;;;4997142;28;20037;-87
2023/06/09 03:24:23;;;;;;;8.93;3.83;;;17.20;84.20;;;;;;4979507;28;20029;-86
2023/06/09 03:26:49;;;;;;;10.27;4.15;;;17.20;84.30;;;;;;4995294;28;20030;-87
2023/06/09 03:29:15;;;;;;;10.65;3.75;;;17.20;84.30;;;;;;4979290;28;20061;-86
2023/06/09 03:31:42;;;;;;;9.27;3.92;;;17.20;84.40;;;;;;4978904;28;20451;-87
2023/06/09 03:34:08;;;;;;;10.57;4.28;;;17.20;84.50;;;;;;4996225;28;20030;-86
2023/06/09 03:36:33;;;;;;;10.73;3.85;;;17.20;84.70;;;;;;4979038;28;20038;-86
2023/06/09 03:38:59;;;;;;;8.38;3.88;;;17.10;84.70;;;;;;4995366;28;20022;-85
2023/06/09 03:41:25;;;;;;;9.75;4.50;;;17.10;84.80;;;;;;4995387;28;20117;-87
2023/06/09 03:43:51;;;;;;;9.77;4.35;;;17.10;85.00;;;;;;4997090;28;20033;-85
2023/06/09 03:46:17;;;;;;;10.02;4.25;;;17.00;85.50;;;;;;4978288;28;20042;-87
2023/06/09 03:48:42;;;;;;;8.82;4.25;;;17.00;85.10;;;;;;4995815;28;20470;-86
2023/06/09 03:51:08;;;;;;;11.60;4.35;;;17.00;85.30;;;;;;4978241;28;20023;-87
2023/06/09 03:53:33;;;;;;;9.65;4.25;;;16.90;85.40;;;;;;4996059;28;20113;-87
2023/06/09 03:55:59;;;;;;;9.05;4.38;;;16.90;85.50;;;;;;4978420;28;20029;-86
2023/06/09 03:58:26;;;;;;;11.88;5.07;;;16.90;85.50;;;;;;4994369;28;20030;-85
2023/06/09 04:00:52;;;;;;;9.57;4.20;;;16.90;85.60;;;;;;4978201;28;20022;-87
2023/06/09 04:03:20;;;;;;;9.55;4.60;;;16.80;85.90;;;;;;4995737;28;20027;-87
2023/06/09 04:05:47;;;;;;;8.30;4.35;;;16.80;86.10;;;;;;4994552;28;20030;-86
2023/06/09 04:08:15;;;;;;;10.20;4.25;;;16.70;86.20;;;;;;4994083;28;20506;-87
2023/06/09 04:10:44;;;;;;;12.13;4.75;;;16.70;86.60;;;;;;4976984;28;20041;-87
2023/06/09 04:13:11;;;;;;;8.43;4.15;;;16.70;86.70;;;;;;4978328;28;20027;-87
2023/06/09 04:15:37;;;;;;;10.05;4.72;;;16.70;86.80;;;;;;4994572;28;20034;-87
2023/06/09 04:18:05;;;;;;;9.55;4.18;;;16.60;86.90;;;;;;4978352;28;20060;-87
2023/06/09 04:20:31;;;;;;;10.25;4.28;;;16.70;86.90;;;;;;4979063;28;20030;-87
2023/06/09 04:22:57;;;;;;;9.57;4.53;;;16.70;86.80;;;;;;5005526;28;20045;-84
2023/06/09 04:25:25;;;;;;;9.55;4.68;;;16.70;86.90;;;;;;5001229;28;20045;-83
2023/06/09 04:27:56;;;;;;;10.57;4.57;;;16.70;87.00;;;;;;5001719;28;20037;-86
2023/06/09 04:30:25;;;;;;;9.88;4.57;;;16.70;87.10;;;;;;5006745;28;20022;-87
2023/06/09 04:32:55;;;;;;;12.88;4.32;;;16.70;87.30;;;;;;4999216;28;20027;-87
2023/06/09 04:35:22;;;;;;;8.80;5.03;;;16.70;87.50;;;;;;4995054;28;20039;-86
2023/06/09 04:37:50;;;;;;;8.68;4.53;;;16.70;88.30;;;;;;4995127;28;20026;-86
2023/06/09 04:40:23;;;;;;;13.55;4.70;;;16.70;87.80;;;;;;4994764;28;20105;-83
2023/06/09 04:42:55;;;;;;;8.30;4.10;;;16.70;87.80;;;;;;4976712;28;20088;-86
2023/06/09 04:45:27;;;;;;;12.07;4.88;;;16.80;87.80;;;;;;4994200;28;20022;-86
2023/06/09 04:47:59;;;;;;;9.65;4.65;;;16.80;87.80;;;;;;4976824;28;20054;-87
2023/06/09 04:50:35;;;;;;;9.35;4.35;;;16.80;87.80;;;;;;4976590;28;20078;-86
2023/06/09 04:53:04;;;;;;;11.68;5.32;;;16.80;87.80;;;;;;4993315;28;20026;-87
2023/06/09 04:55:30;;;;;;;14.02;4.82;;;16.80;88.00;;;;;;4992560;28;20027;-86
2023/06/09 04:57:56;;;;;;;11.48;4.80;;;16.80;88.10;;;;;;4992729;28;20113;-86
2023/06/09 05:00:23;;;;;;;10.20;4.85;;;16.80;88.30;;;;;;4977645;28;20026;-86
2023/06/09 05:02:51;;;;;;;10.20;4.70;;;16.80;88.40;;;;;;4993786;28;20026;-84
2023/06/09 05:05:17;;;;;;;13.15;5.40;;;16.80;88.50;;;;;;4978382;28;20034;-86
2023/06/09 05:07:42;;;;;;;9.05;5.65;;;16.90;88.70;;;;;;4976155;28;20030;-85
2023/06/09 05:10:08;;;;;;;9.30;4.95;;;16.80;88.80;;;;;;4994929;28;20045;-84
2023/06/09 05:12:35;;;;;;;11.30;4.70;;;16.90;88.80;;;;;;4978242;28;20030;-86
2023/06/09 05:15:02;;;;;;;11.30;4.93;;;16.90;88.90;;;;;;4995731;28;20030;-86
2023/06/09 05:17:28;;;;;;;15.25;5.80;;;16.90;88.90;;;;;;4994759;28;20066;-84
2023/06/09 05:19:53;;;;;;;10.70;5.43;;;16.90;89.00;;;;;;4993865;28;20027;-85
2023/06/09 05:22:19;;;;;;;14.98;5.05;;;17.00;89.60;;;;;;4978632;28;20037;-85
2023/06/09 05:24:47;;;;;;;11.70;5.00;;;17.00;89.00;;;;;;4982828;28;20110;-85
2023/06/09 05:27:13;;;;;;;12.00;5.47;;;17.00;89.10;;;;;;4981439;28;20054;-86
2023/06/09 05:29:38;;;;;;;12.48;5.97;;;17.00;89.20;;;;;;4997931;28;20057;-84
2023/06/09 05:32:04;;;;;;;15.52;6.15;;;17.00;89.30;;;;;;4997338;28;20080;-85
2023/06/09 05:34:31;;;;;;;8.77;5.00;;;17.10;89.40;;;;;;4997622;28;20018;-85
2023/06/09 05:36:59;;;;;;;11.10;5.47;;;17.00;89.40;;;;;;4980168;28;20023;-85
2023/06/09 05:39:25;;;;;;;11.15;5.55;;;17.10;90.10;;;;;;4981215;28;20097;-85
2023/06/09 05:41:51;;;;;;;12.02;5.50;;;17.10;89.60;;;;;;4980899;28;20463;-87
2023/06/09 05:44:16;;;;;;;8.38;4.93;;;17.20;89.60;;;;;;4981419;28;20061;-85
2023/06/09 05:46:54;;;;;;;8.52;4.93;;;17.20;89.60;;;;;;4997703;28;20110;-82
2023/06/09 05:49:20;;;;;;;10.93;5.15;;;17.30;89.70;;;;;;4995537;28;20050;-84
2023/06/09 05:51:45;;;;;;;11.85;6.00;;;17.30;90.20;;;;;;4998356;28;20387;-84
2023/06/09 05:54:13;;;;;;;14.27;6.18;;;17.30;89.90;;;;;;4981151;28;20455;-84
2023/06/09 05:56:39;;;;;;;12.45;5.85;;;17.40;89.90;;;;;;4979889;28;20022;-85
2023/06/09 05:59:05;;;;;;;15.32;6.53;;;17.40;90.00;;;;;;4979972;28;20375;-85
2023/06/09 06:01:32;;;;;;;10.43;4.95;;;17.40;90.00;;;;;;4980308;28;20463;-86
2023/06/09 06:03:58;;;;;;;10.48;5.60;;;17.50;90.00;;;;;;4981262;28;20026;-84
2023/06/09 06:06:24;;;;;;;12.18;6.50;;;17.50;89.90;;;;;;4997612;28;20034;-85
2023/06/09 06:08:50;;;;;;;14.27;6.63;;;17.60;90.00;;;;;;4997080;28;20076;-86
2023/06/09 06:11:15;;;;;;;12.13;5.68;;;17.60;90.10;;;;;;4989696;28;20030;-83
2023/06/09 06:13:44;;;;;;;12.32;5.78;;;17.70;90.10;;;;;;5013295;28;20026;-84
2023/06/09 06:16:10;;;;;;;11.75;5.65;;;17.70;90.00;;;;;;4990162;28;20062;-84
2023/06/09 06:18:36;;;;;;;11.63;5.65;;;17.80;90.00;;;;;;4981688;28;20064;-86
2023/06/09 06:21:02;;;;;;;10.68;5.88;;;17.90;90.00;;;;;;4981391;28;20030;-85
2023/06/09 06:23:28;;;;;;;9.93;5.55;;;17.90;90.00;;;;;;4997226;28;20030;-84
2023/06/09 06:25:54;;;;;;;8.95;5.63;;;18.00;90.00;;;;;;4980647;28;20101;-83
2023/06/09 06:28:20;;;;;;;12.48;6.38;;;18.10;89.90;;;;;;4980782;28;20026;-85
2023/06/09 06:30:46;;;;;;;11.32;5.95;;;18.10;89.90;;;;;;4980302;28;20493;-85
2023/06/09 06:33:12;;;;;;;12.98;6.05;;;18.20;89.90;;;;;;4995616;28;20062;-85
2023/06/09 06:35:40;;;;;;;11.45;6.88;;;18.20;89.90;;;;;;4995795;28;20030;-88
2023/06/09 06:38:08;;;;;;;11.32;6.47;;;18.30;90.00;;;;;;4979661;28;20030;-87
2023/06/09 06:40:34;;;;;;;12.75;6.10;;;18.30;90.00;;;;;;4996067;28;20019;-88
2023/06/09 06:43:00;;;;;;;11.02;5.63;;;18.40;90.00;;;;;;4981465;28;20430;-88
2023/06/09 06:45:28;;;;;;;9.07;5.35;;;18.50;89.80;;;;;;4997381;28;20027;-87
2023/06/09 06:47:55;;;;;;;10.88;6.10;;;18.70;89.80;;;;;;4997456;28;20430;-87
2023/06/09 06:50:27;;;;;;;10.20;5.90;;;18.70;89.70;;;;;;4997259;28;20027;-87
2023/06/09 06:52:52;;;;;;;14.32;7.13;;;18.80;89.70;;;;;;4980017;28;20065;-88
2023/06/09 06:55:18;;;;;;;11.50;7.25;;;18.80;89.50;;;;;;4998161;28;20031;-86
2023/06/09 06:57:46;;;;;;;11.23;5.78;;;18.90;89.50;;;;;;4979424;28;20402;-87
2023/06/09 07:00:14;;;;;;;11.25;6.13;;;18.90;89.50;;;;;;4980973;28;20033;-89
2023/06/09 07:02:40;;;;;;;12.38;6.88;;;18.90;89.50;;;;;;4997234;28;20113;-88
2023/06/09 07:05:07;;;;;;;13.15;6.63;;;19.10;89.50;;;;;;4997031;28;20097;-89
2023/06/09 07:07:33;;;;;;;10.85;5.55;;;19.10;89.80;;;;;;4980953;28;20486;-88
2023/06/09 07:09:58;;;;;;;12.18;6.20;;;19.10;89.40;;;;;;4997274;28;20033;-87
2023/06/09 07:12:24;;;;;;;11.68;6.00;;;19.20;89.30;;;;;;4998363;28;20471;-88
2023/06/09 07:14:50;;;;;;;12.70;6.65;;;19.30;89.30;;;;;;4996597;28;20037;-87
2023/06/09 07:17:16;;;;;;;11.35;6.68;;;19.40;89.10;;;;;;4979635;28;20055;-86
2023/06/09 07:19:45;;;;;;;10.85;6.47;;;19.50;89.00;;;;;;4996558;28;20447;-86
2023/06/09 07:22:10;;;;;;;10.55;5.65;;;19.50;89.10;;;;;;4979483;28;20026;-84
2023/06/09 07:24:42;;;;;;;9.38;5.80;;;19.60;89.10;;;;;;4978450;28;20126;-84
2023/06/09 07:27:11;;;;;;;11.18;6.85;;;19.70;89.00;;;;;;4995336;28;20058;-85
2023/06/09 07:29:36;;;;;;;10.73;6.50;;;19.80;88.80;;;;;;4995687;28;20033;-85
2023/06/09 07:32:05;;;;;;;8.57;6.43;;;19.80;88.70;;;;;;4979047;28;20137;-83
2023/06/09 07:34:35;;;;;;;10.93;6.57;;;19.90;88.70;;;;;;4978631;28;20018;-83
2023/06/09 07:37:03;;;;;;;13.18;6.85;;;19.90;88.60;;;;;;4978369;28;20096;-82
2023/06/09 07:39:29;;;;;;;11.95;7.00;;;20.00;88.40;;;;;;4978777;28;20026;-84
2023/06/09 07:41:55;;;;;;;13.32;7.00;;;20.10;88.40;;;;;;4977577;28;20158;-82
2023/06/09 07:44:21;;;;;;;9.45;6.00;;;20.20;88.40;;;;;;4994264;28;20034;-85
2023/06/09 07:46:47;;;;;;;7.35;5.38;;;20.20;88.40;;;;;;4978317;28;20089;-87
2023/06/09 07:49:14;;;;;;;11.38;5.70;;;20.30;88.30;;;;;;4994836;28;20045;-85
2023/06/09 07:51:43;;;;;;;10.43;6.65;;;20.40;88.30;;;;;;4977914;28;20018;-85
2023/06/09 07:54:09;;;;;;;12.13;6.60;;;20.50;88.00;;;;;;4994562;28;20104;-86
2023/06/09 07:56:38;;;;;;;9.85;5.60;;;20.60;88.00;;;;;;4995021;28;20035;-86
2023/06/09 07:59:05;;;;;;;10.75;6.43;;;20.70;87.80;;;;;;4980116;28;20026;-86
2023/06/09 08:30:31;;;;;;;10.85;7.07;;;21.00;84.80;;;;;;5070309;27;1468165;-86
2023/06/09 08:32:57;;;;;;;9.63;6.72;;;21.70;86.80;;;;;;5073968;28;20079;-85
2023/06/09 08:35:23;;;;;;;12.38;7.28;;;21.80;87.00;;;;;;5059451;28;20457;-85
2023/06/09 08:37:50;;;;;;;10.82;7.22;;;21.80;87.00;;;;;;5074109;28;20036;-85
2023/06/09 08:40:16;;;;;;;8.07;6.20;;;21.80;87.00;;;;;;5074066;28;20044;-85
2023/06/09 08:42:46;;;;;;;9.43;6.22;;;22.00;87.00;;;;;;5091601;28;20056;-84
2023/06/09 08:45:14;;;;;;;10.68;6.88;;;22.10;87.00;;;;;;5095458;28;20028;-84
2023/06/09 08:47:43;;;;;;;13.85;7.85;;;22.10;86.70;;;;;;5090758;28;20111;-84
2023/06/09 08:50:10;;;;;;;10.35;6.97;;;22.20;86.30;;;;;;5091048;28;20020;-83
2023/06/09 08:52:37;;;;;;;10.43;6.78;;;22.30;86.40;;;;;;5073979;28;20035;-83
2023/06/09 08:55:03;;;;;;;11.43;6.82;;;22.40;86.30;;;;;;5074311;28;20032;-83
2023/06/09 08:57:30;;;;;;;9.07;6.28;;;22.50;86.20;;;;;;5073686;28;20028;-83
2023/06/09 08:59:56;;;;;;;10.35;6.25;;;22.60;86.20;;;;;;5091557;28;20036;-83
2023/06/09 09:02:22;;;;;;;10.20;6.72;;;22.70;86.00;;;;;;5090681;28;20046;-84
2023/06/09 09:04:49;;;;;;;7.57;5.75;;;22.80;86.20;;;;;;5078089;28;20115;-82
2023/06/09 09:07:15;;;;;;;9.57;5.93;;;22.80;85.60;;;;;;5114208;28;20005;-83
2023/06/09 09:09:41;;;;;;;10.60;6.20;;;22.90;85.50;;;;;;5114028;28;20044;-82
2023/06/09 09:12:13;;;;;;;10.73;6.63;;;23.00;85.30;;;;;;5113797;28;20079;-85
2023/06/09 09:14:43;;;;;;;8.73;6.13;;;23.10;85.00;;;;;;5114849;28;20031;-84
2023/06/09 09:17:18;;;;;;;9.15;5.97;;;23.20;84.80;;;;;;5113714;28;20036;-80
2023/06/09 09:19:51;;;;;;;10.25;5.80;;;23.30;84.90;;;;;;5092316;28;20475;-82
2023/06/09 09:22:17;;;;;;;10.07;6.40;;;23.40;84.70;;;;;;5091274;28;20107;-81
2023/06/09 09:24:45;;;;;;;9.15;6.43;;;23.50;84.20;;;;;;5090191;28;20461;-82
2023/06/09 09:27:18;;;;;;;8.52;5.68;;;23.60;84.00;;;;;;5090928;28;20421;-82
2023/06/09 09:29:45;;;;;;;10.10;6.80;;;23.70;84.00;;;;;;5085059;28;20109;-82
2023/06/09 09:32:11;;;;;;;10.10;7.00;;;23.80;83.60;;;;;;5077139;28;20028;-83
2023/06/09 09:34:40;;;;;;;10.27;6.25;;;23.90;83.40;;;;;;5059332;28;20086;-83
2023/06/09 09:37:15;;;;;;;8.15;6.00;;;23.90;83.20;;;;;;5076032;28;20017;-85
2023/06/09 09:39:51;;;;;;;8.27;5.85;;;24.00;83.20;;;;;;5077174;28;20025;-85
2023/06/09 09:42:17;;;;;;;8.68;6.57;;;24.10;83.00;;;;;;5076143;28;20024;-85
2023/06/09 09:44:50;;;;;;;13.20;7.15;;;24.10;82.50;;;;;;5077866;28;20035;-85
2023/06/09 09:47:16;;;;;;;14.00;6.70;;;24.20;82.60;;;;;;5077199;28;20096;-85
2023/06/09 09:49:55;;;;;;;9.02;6.50;;;24.30;82.00;;;;;;5077197;28;20056;-88
2023/06/09 09:52:24;;;;;;;9.50;5.88;;;24.30;81.30;;;;;;5074517;28;20457;-84
2023/06/09 09:54:52;;;;;;;8.88;6.30;;;24.40;81.30;;;;;;5056685;28;20120;-86
2023/06/09 09:57:19;;;;;;;8.93;6.05;;;24.40;81.30;;;;;;5066888;28;20465;-85
2023/06/09 09:59:46;;;;;;;7.78;5.47;;;24.50;81.10;;;;;;5043037;28;20105;-85
2023/06/09 10:02:20;;;;;;;8.15;6.07;;;24.50;81.10;;;;;;5076616;28;20028;-85
2023/06/09 10:04:47;;;;;;;8.75;5.75;;;24.60;81.40;;;;;;5060292;28;20064;-85
2023/06/09 10:07:15;;;;;;;9.63;6.00;;;24.70;81.30;;;;;;5045486;28;20029;-85
2023/06/09 10:09:42;;;;;;;8.63;6.10;;;24.70;80.50;;;;;;5070037;28;20087;-85
2023/06/09 10:12:11;;;;;;;7.97;5.18;;;24.80;79.90;;;;;;5055660;28;20386;-85
2023/06/09 10:14:38;;;;;;;8.80;6.17;;;24.80;79.90;;;;;;5065622;28;20048;-86
2023/06/09 10:17:05;;;;;;;9.57;6.50;;;24.90;79.80;;;;;;5075038;28;20040;-85
2023/06/09 10:19:31;;;;;;;7.32;5.63;;;24.90;79.60;;;;;;5056860;28;20171;-85
2023/06/09 10:22:00;;;;;;;10.57;6.43;;;25.00;79.70;;;;;;5075263;28;20060;-85
2023/06/09 10:24:31;;;;;;;11.20;6.38;;;25.10;79.10;;;;;;5075695;28;20024;-85
2023/06/09 10:27:00;;;;;;;7.80;4.78;;;25.10;78.90;;;;;;5059217;28;20035;-86
2023/06/09 10:29:29;;;;;;;4.57;4.18;;;25.20;79.10;;;;;;5075530;28;20055;-86
2023/06/09 10:31:56;;;;;;;6.22;4.07;;;25.30;79.00;;;;;;5058039;28;20040;-85
2023/06/09 10:34:23;;;;;;;6.88;4.80;;;25.30;78.90;;;;;;5074663;28;20055;-88
2023/06/09 10:36:55;;;;;;;5.40;4.85;;;25.40;78.40;;;;;;5057088;28;20127;-86
2023/06/09 10:39:22;;;;;;;11.43;5.32;;;25.50;78.00;;;;;;5075252;28;20034;-85
2023/06/09 10:42:16;;;;;;;7.30;5.18;;;25.50;77.70;;;;;;5075388;28;20056;-89
2023/06/09 10:44:54;;;;;;;6.50;4.97;;;25.60;77.90;;;;;;5076023;28;20024;-90
2023/06/09 10:47:46;;;;;;;5.60;4.32;;;25.70;77.90;;;;;;5074878;28;20138;-91
2023/06/09 10:50:25;;;;;;;5.93;4.88;;;25.80;77.80;;;;;;5074491;28;20028;-91
2023/06/09 10:52:55;;;;;;;5.53;4.22;;;25.90;77.40;;;;;;5076760;28;20021;-91
2023/06/09 10:55:22;;;;;;;;;;;25.90;77.20;;;;;;5076000;28;20249;-93
2023/06/09 10:57:49;;;;;;;6.57;4.28;;;25.90;77.30;;;;;;5076045;28;19987;-91
2023/06/09 11:00:15;;;;;;;5.43;4.47;;;25.90;77.00;;;;;;5075455;28;20021;-88
2023/06/09 11:02:52;;;;;;;5.40;4.65;;;26.00;76.90;;;;;;5057449;28;20028;-93
2023/06/09 11:05:20;;;;;;;5.63;4.28;;;26.10;77.40;;;;;;5080619;28;20055;-89
2023/06/09 11:07:51;;;;;;;6.03;4.85;;;26.10;76.70;;;;;;5086109;28;20021;-90
2023/06/09 11:10:24;;;;;;;6.18;4.38;;;26.20;75.60;;;;;;5096373;28;20013;-88
2023/06/09 11:13:39;;;;;;;6.43;4.43;;;26.30;75.50;;;;;;5076829;28;20017;-89
2023/06/09 11:16:05;;;;;;;5.53;4.50;;;26.40;75.10;;;;;;5017021;28;20033;-87
2023/06/09 11:18:31;;;;;;;6.80;5.03;;;26.50;74.70;;;;;;5068750;28;20049;-89
2023/06/09 11:21:30;;;;;;;6.65;4.60;;;26.50;75.10;;;;;;5066972;28;20025;-89
2023/06/09 11:24:00;;;;;;;7.28;4.80;;;26.50;74.40;;;;;;5003910;28;20072;-89
2023/06/09 11:26:27;;;;;;;5.70;4.43;;;26.60;73.20;;;;;;5054296;28;20057;-85
2023/06/09 11:28:53;;;;;;;7.45;5.10;;;26.60;72.80;;;;;;5054767;28;20428;-84
2023/06/09 11:31:19;;;;;;;8.73;4.80;;;26.60;73.10;;;;;;5054914;28;20021;-85
2023/06/09 11:33:55;;;;;;;5.40;4.68;;;26.70;71.80;;;;;;5054829;28;20159;-91
2023/06/09 11:36:27;;;;;;;6.13;4.90;;;26.70;72.40;;;;;;5054581;28;20017;-88
2023/06/09 11:39:03;;;;;;;6.68;4.80;;;26.80;72.40;;;;;;5052660;28;20067;-89
2023/06/09 11:41:30;;;;;;;6.82;4.97;;;26.90;72.00;;;;;;5052224;28;20025;-88
2023/06/09 11:43:56;;;;;;;6.60;4.50;;;27.00;71.30;;;;;;5052539;28;20033;-88
2023/06/09 11:46:22;;;;;;;5.30;4.03;;;27.00;70.10;;;;;;5068963;28;20044;-88
2023/06/09 11:49:07;;;;;;;5.55;4.07;;;27.00;70.10;;;;;;5052660;28;20029;-89
2023/06/09 11:51:56;;;;;;;4.50;4.05;;;27.10;67.90;;;;;;5068994;28;20023;-89
2023/06/09 11:54:21;;;;;;;5.15;3.97;;;27.10;68.30;;;;;;5053360;28;20510;-89
2023/06/09 11:56:47;;;;;;;5.57;4.05;;;27.20;68.10;;;;;;5053905;28;20102;-89
2023/06/09 11:59:18;;;;;;;4.85;3.90;;;27.20;68.10;;;;;;5053522;28;20020;-89
2023/06/09 12:01:43;;;;;;;5.45;3.90;;;27.20;68.70;;;;;;5053551;28;20064;-91
2023/06/09 12:04:09;;;;;;;4.60;3.67;;;27.30;68.90;;;;;;5052669;28;20098;-88
2023/06/09 12:06:36;;;;;;;6.43;4.22;;;27.30;69.10;;;;;;5036016;28;20116;-90
2023/06/09 12:09:21;;;;;;;6.00;4.57;;;27.40;68.00;;;;;;5052475;28;20059;-90
2023/06/09 12:11:52;;;;;;;4.97;4.47;;;27.50;68.00;;;;;;5053625;28;20048;-91
2023/06/09 12:14:21;;;;;;;7.80;5.30;;;27.50;67.70;;;;;;5053948;28;20025;-89
2023/06/09 12:16:47;;;;;;;7.32;4.60;;;27.60;67.50;;;;;;5069274;28;20116;-90
2023/06/09 12:19:13;;;;;;;5.05;4.22;;;27.70;67.40;;;;;;5053450;28;20021;-90
2023/06/09 12:21:38;;;;;;;4.07;3.67;;;27.70;66.90;;;;;;5053585;28;20029;-90
2023/06/09 12:24:08;;;;;;;5.45;3.90;;;27.80;66.60;;;;;;5070204;28;20729;-90
2023/06/09 12:26:44;;;;;;;4.60;4.10;;;27.70;65.30;;;;;;5052876;28;20059;-90
2023/06/09 12:29:13;;;;;;;3.90;3.50;;;27.80;65.30;;;;;;5051354;28;20052;-88
2023/06/09 12:31:46;;;;;;;4.20;3.58;;;27.80;65.40;;;;;;5051735;28;20017;-89
2023/06/09 12:34:29;;;;;;;5.28;3.90;;;27.80;65.80;;;;;;5052400;28;20461;-88
2023/06/09 12:37:03;;;;;;;4.35;3.80;;;27.80;65.40;;;;;;5062406;28;20025;-88
2023/06/09 12:39:35;;;;;;;4.10;3.70;;;27.80;65.60;;;;;;5058924;28;20075;-90
2023/06/09 12:42:11;;;;;;;4.63;3.40;;;27.80;65.70;;;;;;5057739;28;20048;-90
2023/06/09 12:44:37;;;;;;;4.97;3.72;;;27.80;66.00;;;;;;5062161;28;20502;-88
2023/06/09 12:47:03;;;;;;;3.97;3.67;;;27.90;65.70;;;;;;5055166;28;20057;-85
2023/06/09 12:49:31;;;;;;;4.13;3.72;;;27.90;65.40;;;;;;5040272;28;20112;-87
2023/06/09 12:51:58;;;;;;;4.75;3.72;;;28.00;65.70;;;;;;5052737;28;20124;-88
2023/06/09 12:54:28;;;;;;;6.10;3.40;;;28.00;66.10;;;;;;5050998;28;20029;-87
2023/06/09 12:56:55;;;;;;;5.35;3.78;;;28.10;66.20;;;;;;5057800;28;20021;-88
2023/06/09 12:59:21;;;;;;;4.05;3.50;;;28.10;65.80;;;;;;5041654;28;20454;-88
2023/06/09 13:01:47;;;;;;;4.25;3.88;;;28.20;65.30;;;;;;5052049;28;20025;-89
2023/06/09 13:04:16;;;;;;;5.93;3.85;;;28.20;64.20;;;;;;5047504;28;20025;-88
2023/06/09 13:06:42;;;;;;;4.68;3.70;;;28.20;64.00;;;;;;5061285;28;20029;-88
2023/06/09 13:09:10;;;;;;;4.22;3.78;;;28.20;64.20;;;;;;5061414;28;20405;-88
2023/06/09 13:11:36;;;;;;;4.22;3.58;;;28.20;64.60;;;;;;5061802;28;20524;-89
2023/06/09 13:14:02;;;;;;;3.80;3.50;;;28.30;64.10;;;;;;5047845;28;20046;-89
2023/06/09 13:16:31;;;;;;;4.78;3.60;;;28.30;64.20;;;;;;5079568;28;20025;-87
2023/06/09 13:18:57;;;;;;;3.47;3.17;;;28.40;64.20;;;;;;5081123;28;20023;-88
2023/06/09 13:21:23;;;;;;;5.00;3.50;;;28.40;63.30;;;;;;5100038;28;20004;-86
2023/06/09 13:23:49;;;;;;;3.78;3.33;;;28.50;63.70;;;;;;5100576;28;20039;-88